createdAt,value
2018-06-30T00:00:13.777Z,53.8
2018-06-30T00:01:21.671Z,55.4
2018-06-30T00:02:29.303Z,56.7
2018-06-30T00:03:36.937Z,60
2018-06-30T00:04:44.304Z,61.1
2018-06-30T00:05:52.193Z,62.9
2018-06-30T00:06:59.806Z,62.5
2018-06-30T00:08:07.701Z,65.8
2018-06-30T00:09:15.620Z,66.9
2018-06-30T00:10:23.547Z,67.5
2018-06-30T00:11:31.548Z,67.5
2018-06-30T00:12:39.437Z,67.5
2018-06-30T00:13:47.350Z,67.9
2018-06-30T00:14:55.241Z,66.7
2018-06-30T00:16:03.131Z,70.3
2018-06-30T00:17:11.025Z,70.5
2018-06-30T00:18:18.933Z,71.4
2018-06-30T00:19:26.823Z,73.7
2018-06-30T00:21:42.312Z,77.6
2018-06-30T00:22:50.226Z,78.5
2018-06-30T00:23:58.111Z,78.5
2018-06-30T00:25:06.009Z,75
2018-06-30T00:26:13.615Z,80.4
2018-06-30T00:27:21.524Z,77.2
2018-06-30T00:28:29.439Z,76.4
2018-06-30T00:29:37.336Z,77
2018-06-30T00:30:45.222Z,73.1
2018-06-30T00:31:53.132Z,78.3
2018-06-30T00:33:01.018Z,78.2
2018-06-30T00:34:08.907Z,77.9
2018-06-30T00:35:16.808Z,77.8
2018-06-30T00:36:24.705Z,77.2
2018-06-30T00:37:32.594Z,75
2018-06-30T00:38:40.485Z,76
2018-06-30T00:39:48.370Z,76.4
2018-06-30T00:40:56.281Z,74.9
2018-06-30T00:42:04.171Z,76.4
2018-06-30T00:43:11.785Z,70.5
2018-06-30T00:44:19.678Z,72
2018-06-30T00:45:27.580Z,74
2018-06-30T00:46:35.201Z,69
2018-06-30T00:47:43.097Z,70.4
2018-06-30T00:48:50.991Z,71.7
2018-06-30T00:49:58.900Z,70.8
2018-06-30T00:51:06.795Z,73.2
2018-06-30T00:52:14.739Z,71.6
2018-06-30T00:53:22.692Z,71.1
2018-06-30T00:54:30.617Z,71.3
2018-06-30T00:55:38.230Z,71.6
2018-06-30T00:56:45.846Z,68.1
2018-06-30T00:57:53.734Z,70.6
2018-06-30T00:59:01.372Z,68
2018-06-30T01:00:09.259Z,70.6
2018-06-30T01:01:17.158Z,69.9
2018-06-30T01:02:24.499Z,70.6
2018-06-30T01:03:32.178Z,71
2018-06-30T01:04:40.070Z,70.6
2018-06-30T01:05:47.955Z,68.9
2018-06-30T01:06:55.850Z,71.8
2018-06-30T01:08:03.757Z,67.9
2018-06-30T01:09:11.641Z,70
2018-06-30T01:10:19.292Z,69
2018-06-30T01:11:27.179Z,68.6
2018-06-30T01:12:34.804Z,69.7
2018-06-30T01:13:42.697Z,71.6
2018-06-30T01:14:50.582Z,73.2
2018-06-30T01:15:58.465Z,71.9
2018-06-30T01:17:06.095Z,72.3
2018-06-30T01:18:13.986Z,67.8
2018-06-30T01:19:21.872Z,72.1
2018-06-30T01:20:29.774Z,69.4
2018-06-30T01:21:37.692Z,73.4
2018-06-30T01:22:45.611Z,74.4
2018-06-30T01:23:53.498Z,75.1
2018-06-30T01:25:01.108Z,74.4
2018-06-30T01:26:09.015Z,72.9
2018-06-30T01:27:16.905Z,73.5
2018-06-30T01:28:24.809Z,71.9
2018-06-30T01:29:32.702Z,75.1
2018-06-30T01:30:40.605Z,72.9
2018-06-30T01:31:48.218Z,74.8
2018-06-30T01:32:56.111Z,75.8
2018-06-30T01:34:04.004Z,72.5
2018-06-30T01:35:11.911Z,76.1
2018-06-30T01:36:19.803Z,74.2
2018-06-30T01:37:27.159Z,77.6
2018-06-30T01:38:35.047Z,75.6
2018-06-30T01:39:42.953Z,73.1
2018-06-30T01:40:50.842Z,74.4
2018-06-30T01:41:58.734Z,79.3
2018-06-30T01:43:06.623Z,77.7
2018-06-30T01:44:14.528Z,78.1
2018-06-30T01:45:22.411Z,78.3
2018-06-30T01:46:30.049Z,75.6
2018-06-30T01:47:37.937Z,81.1
2018-06-30T01:48:45.561Z,81.8
2018-06-30T01:49:53.445Z,79.6
2018-06-30T01:51:01.061Z,80.2
2018-06-30T01:52:08.966Z,80.1
2018-06-30T01:53:16.858Z,81.6
2018-06-30T01:54:24.748Z,83.9
2018-06-30T01:55:32.654Z,84.3
2018-06-30T01:56:40.543Z,88.4
2018-06-30T01:57:48.444Z,90
2018-06-30T01:58:56.334Z,84.2
2018-06-30T02:00:04.229Z,85.1
2018-06-30T02:01:11.855Z,86.3
2018-06-30T02:02:19.759Z,87.1
2018-06-30T02:03:27.645Z,90.1
2018-06-30T02:04:35.545Z,86.8
2018-06-30T02:05:43.468Z,89
2018-06-30T02:06:51.382Z,86.5
2018-06-30T02:07:59.271Z,91.1
2018-06-30T02:09:07.160Z,90.7
2018-06-30T02:10:15.053Z,90.3
2018-06-30T02:11:22.956Z,91.1
2018-06-30T02:12:30.841Z,91.5
2018-06-30T02:13:38.753Z,91.1
2018-06-30T02:14:46.641Z,91.7
2018-06-30T02:15:54.544Z,91.6
2018-06-30T02:17:02.428Z,91.4
2018-06-30T02:18:10.058Z,92.7
2018-06-30T02:19:17.952Z,92.4
2018-06-30T02:20:25.859Z,92.6
2018-06-30T02:21:33.762Z,93.4
2018-06-30T02:22:41.927Z,91.4
2018-06-30T02:23:49.813Z,92.7
2018-06-30T02:24:57.437Z,92.7
2018-06-30T02:26:05.335Z,95
2018-06-30T02:27:13.237Z,97.9
2018-06-30T02:28:21.122Z,96.5
2018-06-30T02:29:29.029Z,98.3
2018-06-30T02:30:36.912Z,98.6
2018-06-30T02:31:44.820Z,98.6
2018-06-30T02:32:52.708Z,99.1
2018-06-30T02:34:00.609Z,97.5
2018-06-30T02:35:08.496Z,98.1
2018-06-30T02:36:16.401Z,99.9
2018-06-30T02:37:24.303Z,99.9
2018-06-30T02:38:32.207Z,99.9
2018-06-30T02:39:40.111Z,99.9
2018-06-30T02:40:48.005Z,99.9
2018-06-30T02:41:55.897Z,99.9
2018-06-30T02:43:03.800Z,99.9
2018-06-30T02:44:11.684Z,99.9
2018-06-30T02:45:19.597Z,99.9
2018-06-30T02:46:27.480Z,99.9
2018-06-30T02:47:35.117Z,99.9
2018-06-30T02:48:43.004Z,99.9
2018-06-30T02:49:50.907Z,99.9
2018-06-30T02:50:58.804Z,99.9
2018-06-30T02:52:06.697Z,99.9
2018-06-30T02:53:14.581Z,99.9
2018-06-30T02:54:22.487Z,99.9
2018-06-30T02:55:30.382Z,99.9
2018-06-30T02:56:38.294Z,99.9
2018-06-30T02:57:46.185Z,99.9
2018-06-30T02:58:54.106Z,99.9
2018-06-30T03:00:01.988Z,99.9
2018-06-30T03:01:09.608Z,99.9
2018-06-30T03:02:17.495Z,99.9
2018-06-30T03:03:25.403Z,99.9
2018-06-30T03:04:33.286Z,99.9
2018-06-30T03:05:40.918Z,99.9
2018-06-30T03:06:48.806Z,99.9
2018-06-30T03:07:56.716Z,99.9
2018-06-30T03:09:04.602Z,99.9
2018-06-30T03:10:12.489Z,99.9
2018-06-30T03:11:20.107Z,99.9
2018-06-30T03:12:27.734Z,99.9
2018-06-30T03:13:35.617Z,99.9
2018-06-30T03:14:43.246Z,99.9
2018-06-30T03:15:51.134Z,99.9
2018-06-30T03:16:59.042Z,99.9
2018-06-30T03:18:06.934Z,99.9
2018-06-30T03:19:14.817Z,99.9
2018-06-30T03:20:22.702Z,99.9
2018-06-30T03:21:30.332Z,99.9
2018-06-30T03:22:38.229Z,99.9
2018-06-30T03:23:46.115Z,99.9
2018-06-30T03:24:54.016Z,99.9
2018-06-30T03:26:01.912Z,99.9
2018-06-30T03:27:09.795Z,99.9
2018-06-30T03:28:17.411Z,99.9
2018-06-30T03:29:25.307Z,99.9
2018-06-30T03:30:33.209Z,99.9
2018-06-30T03:31:41.155Z,99.9
2018-06-30T03:32:49.616Z,99.9
2018-06-30T03:33:57.223Z,99.9
2018-06-30T03:35:05.129Z,99.9
2018-06-30T03:36:13.012Z,99.9
2018-06-30T03:37:20.899Z,99.9
2018-06-30T03:38:28.554Z,99.9
2018-06-30T03:39:36.572Z,99.9
2018-06-30T03:40:44.457Z,99.9
2018-06-30T03:41:52.344Z,99.9
2018-06-30T03:43:00.237Z,99.9
2018-06-30T03:44:07.863Z,99.9
2018-06-30T03:45:15.757Z,99.9
2018-06-30T03:46:23.645Z,99.9
2018-06-30T03:47:31.537Z,99.9
2018-06-30T03:48:39.459Z,99.9
2018-06-30T03:49:47.345Z,99.9
2018-06-30T03:50:55.234Z,99.9
2018-06-30T03:52:03.117Z,99.9
2018-06-30T03:53:11.021Z,99.9
2018-06-30T03:54:18.909Z,99.9
2018-06-30T03:55:26.802Z,99.9
2018-06-30T03:56:34.696Z,99.9
2018-06-30T03:57:42.604Z,99.9
2018-06-30T03:58:50.495Z,99.9
2018-06-30T03:59:58.387Z,99.9
2018-06-30T04:01:06.277Z,99.9
2018-06-30T04:02:14.179Z,99.9
2018-06-30T04:03:22.073Z,99.9
2018-06-30T04:04:29.688Z,99.9
2018-06-30T04:05:37.576Z,99.9
2018-06-30T04:06:45.481Z,99.9
2018-06-30T04:07:53.381Z,99.9
2018-06-30T04:09:01.261Z,99.9
2018-06-30T04:10:09.206Z,99.9
2018-06-30T22:00:06.461Z,11.4
2018-06-30T22:01:14.353Z,12
2018-06-30T22:02:22.256Z,12.1
2018-06-30T22:03:30.155Z,12.4
2018-06-30T22:04:38.055Z,12.4
2018-06-30T22:05:45.945Z,13.6
2018-06-30T22:06:53.853Z,13.4
2018-06-30T22:08:01.746Z,12.8
2018-06-30T22:09:09.652Z,12.1
2018-06-30T22:10:17.538Z,13.1
2018-06-30T22:11:25.298Z,13
2018-06-30T22:12:33.317Z,13
2018-06-30T22:13:41.234Z,13.6
2018-06-30T22:14:49.126Z,12.9
2018-06-30T22:15:57.032Z,14.5
2018-06-30T22:17:04.922Z,13.6
2018-06-30T22:18:12.842Z,16.1
2018-06-30T22:19:20.751Z,14.4
2018-06-30T22:20:28.646Z,14.6
2018-06-30T22:21:36.536Z,14.7
2018-06-30T22:22:44.460Z,15.6
2018-06-30T22:23:52.329Z,14.7
2018-06-30T22:24:59.964Z,14.9
2018-06-30T22:26:07.852Z,14.7
2018-06-30T22:27:15.494Z,14.7
2018-06-30T22:28:23.125Z,14.7
2018-06-30T22:29:30.753Z,15
2018-06-30T22:30:38.644Z,15.1
2018-06-30T22:31:46.543Z,14.6
2018-06-30T22:32:54.434Z,14.6
2018-06-30T22:34:02.336Z,15.3
2018-06-30T22:35:10.284Z,15.6
2018-06-30T22:36:18.379Z,16.1
2018-06-30T22:37:26.268Z,15
2018-06-30T22:38:34.175Z,14.8
2018-06-30T22:39:42.068Z,15.4
2018-06-30T22:40:49.688Z,15.1
2018-06-30T22:41:57.325Z,15.3
2018-06-30T22:43:05.231Z,15.2
2018-06-30T22:44:13.131Z,14.5
2018-06-30T22:45:21.035Z,14.5
2018-06-30T22:46:28.924Z,15.6
2018-06-30T22:47:36.827Z,15.4
2018-06-30T22:48:44.723Z,17.3
2018-06-30T22:49:52.626Z,15.9
2018-06-30T22:51:00.518Z,15.4
2018-06-30T22:52:08.421Z,16.1
2018-06-30T22:53:16.311Z,17.2
2018-06-30T22:54:24.269Z,16.1
2018-06-30T22:55:32.609Z,16.6
2018-06-30T22:56:40.527Z,17.3
2018-06-30T22:57:48.409Z,17
2018-06-30T22:58:56.039Z,18.8
2018-06-30T23:00:03.929Z,17.5
2018-06-30T23:01:11.834Z,17.5
2018-06-30T23:02:19.732Z,16.7
2018-06-30T23:03:27.637Z,17.8
2018-06-30T23:04:35.256Z,17.3
2018-06-30T23:05:43.162Z,17.2
2018-06-30T23:06:51.045Z,18.2
2018-06-30T23:07:58.950Z,16.3
2018-06-30T23:09:06.839Z,16.5
2018-06-30T23:10:14.196Z,17.4
2018-06-30T23:11:21.805Z,17.1
2018-06-30T23:12:29.716Z,16.6
2018-06-30T23:13:37.341Z,17
2018-06-30T23:14:45.242Z,17
2018-06-30T23:15:53.127Z,17.4
2018-06-30T23:17:01.032Z,17.4
2018-06-30T23:18:08.930Z,16.7
2018-06-30T23:19:16.850Z,17.4
2018-06-30T23:20:24.460Z,17.3
2018-06-30T23:21:32.368Z,16.6
2018-06-30T23:22:40.259Z,16.8
2018-06-30T23:23:47.887Z,17.2
2018-06-30T23:24:55.777Z,16.5
2018-06-30T23:26:03.677Z,16.7
2018-06-30T23:27:11.290Z,16.9
2018-06-30T23:28:19.196Z,17.3
2018-06-30T23:29:26.828Z,17.7
2018-06-30T23:30:34.733Z,18.4
2018-06-30T23:31:42.623Z,17.4
2018-06-30T23:32:50.525Z,18.6
2018-06-30T23:33:58.413Z,18.1
2018-06-30T23:35:06.321Z,18.5
2018-06-30T23:36:14.207Z,18.9
2018-06-30T23:37:22.108Z,18.4
2018-06-30T23:38:29.999Z,19.2
2018-06-30T23:39:37.906Z,19.1
2018-06-30T23:40:45.794Z,19.9
2018-06-30T23:41:53.696Z,19.5
2018-06-30T23:43:01.588Z,18.6
2018-06-30T23:44:09.489Z,18.5
2018-06-30T23:45:17.384Z,18.9
2018-06-30T23:46:25.016Z,18.5
2018-06-30T23:47:32.903Z,18.4
2018-06-30T23:48:40.804Z,18.2
2018-06-30T23:49:48.416Z,19.3
2018-06-30T23:50:56.318Z,19
2018-06-30T23:52:03.975Z,20.5
2018-06-30T23:53:11.950Z,19.8
2018-06-30T23:54:19.833Z,21.2
2018-06-30T23:55:27.734Z,21.1
2018-06-30T23:56:35.626Z,20.9
2018-06-30T23:57:43.529Z,22.3
2018-06-30T23:58:51.412Z,23.2
2018-06-30T23:59:59.313Z,21.6
